createdAt,value
2019-03-21T00:00:00.168Z,66.20
2019-03-21T00:02:30.318Z,67.10
2019-03-21T00:05:00.385Z,66.90
2019-03-21T00:07:30.332Z,66.80
2019-03-21T00:10:18.571Z,67.40
2019-03-21T00:12:48.525Z,67.40
2019-03-21T00:15:21.459Z,67.70
2019-03-21T00:17:53.972Z,67.40
2019-03-21T00:20:23.851Z,67.80
2019-03-21T00:22:53.783Z,67.50
2019-03-21T00:25:25.456Z,68.00
2019-03-21T00:27:55.312Z,68.20
2019-03-21T00:30:26.506Z,68.10
2019-03-21T00:32:57.256Z,68.50
2019-03-21T00:35:27.178Z,68.40
2019-03-21T00:37:57.097Z,69.10
2019-03-21T00:40:29.503Z,69.10
2019-03-21T00:43:01.944Z,69.00
2019-03-21T00:45:31.992Z,69.40
2019-03-21T00:48:03.043Z,70.50
2019-03-21T00:50:32.920Z,69.70
2019-03-21T00:53:02.911Z,70.00
2019-03-21T00:55:36.042Z,70.50
2019-03-21T00:58:06.132Z,70.00
2019-03-21T01:00:42.327Z,69.40
2019-03-21T01:03:13.022Z,69.80
2019-03-21T01:05:43.507Z,69.80
2019-03-21T01:08:13.381Z,69.90
2019-03-21T01:10:43.302Z,70.50
2019-03-21T01:13:13.469Z,70.80
2019-03-21T01:15:43.436Z,71.20
2019-03-21T01:18:13.310Z,70.90
2019-03-21T01:20:43.231Z,71.20
2019-03-21T01:23:13.165Z,71.10
2019-03-21T01:25:46.054Z,72.00
2019-03-21T01:28:15.959Z,72.20
2019-03-21T01:30:45.832Z,72.50
2019-03-21T01:33:15.691Z,72.70
2019-03-21T01:35:45.642Z,72.70
2019-03-21T01:38:15.575Z,72.60
2019-03-21T01:40:51.321Z,72.00
2019-03-21T01:43:21.995Z,72.20
2019-03-21T01:45:51.926Z,72.40
2019-03-21T01:48:21.842Z,72.50
2019-03-21T01:50:51.737Z,72.50
2019-03-21T01:53:21.607Z,73.30
2019-03-21T01:55:51.531Z,73.30
2019-03-21T01:58:21.405Z,72.80
2019-03-21T02:00:54.065Z,73.10
2019-03-21T02:03:24.053Z,73.40
2019-03-21T02:05:54.000Z,74.00
2019-03-21T02:08:24.021Z,73.30
2019-03-21T02:10:53.968Z,73.10
2019-03-21T02:13:23.906Z,73.40
2019-03-21T02:15:53.756Z,73.30
2019-03-21T02:18:23.636Z,74.00
2019-03-21T02:20:53.637Z,73.40
2019-03-21T02:23:24.572Z,73.40
2019-03-21T02:25:54.437Z,73.40
2019-03-21T02:28:24.377Z,73.40
2019-03-21T02:30:54.391Z,73.80
2019-03-21T02:33:27.414Z,73.90
2019-03-21T02:35:57.328Z,74.30
2019-03-21T02:38:28.343Z,73.80
2019-03-21T02:41:04.200Z,73.80
2019-03-21T02:43:34.151Z,74.10
2019-03-21T02:46:04.225Z,73.90
2019-03-21T02:48:34.157Z,74.30
2019-03-21T02:51:04.920Z,74.00
2019-03-21T02:53:34.838Z,73.90
2019-03-21T02:56:08.784Z,74.20
2019-03-21T02:58:38.660Z,73.70
2019-03-21T03:01:08.563Z,74.20
2019-03-21T03:03:38.484Z,73.80
2019-03-21T03:06:08.483Z,74.00
2019-03-21T03:08:39.492Z,73.90
2019-03-21T03:11:12.189Z,75.10
2019-03-21T03:13:44.816Z,74.50
2019-03-21T03:16:14.669Z,74.60
2019-03-21T03:18:44.513Z,74.80
2019-03-21T03:21:14.451Z,74.80
2019-03-21T03:23:44.388Z,75.20
2019-03-21T03:26:14.392Z,75.40
2019-03-21T03:28:46.499Z,75.20
2019-03-21T03:31:17.434Z,75.50
2019-03-21T03:33:47.353Z,75.80
2019-03-21T03:36:17.288Z,75.40
2019-03-21T03:38:47.201Z,75.50
2019-03-21T03:41:19.187Z,76.10
2019-03-21T03:43:49.101Z,75.80
2019-03-21T03:46:18.972Z,76.20
2019-03-21T03:48:48.832Z,76.00
2019-03-21T03:51:18.764Z,76.10
2019-03-21T03:53:48.655Z,76.50
2019-03-21T03:56:18.609Z,76.90
2019-03-21T03:58:57.402Z,76.70
2019-03-21T04:01:27.562Z,76.60
2019-03-21T04:03:57.519Z,76.70
2019-03-21T04:06:27.460Z,76.60
2019-03-21T04:08:57.317Z,76.50
2019-03-21T04:11:27.321Z,76.50
2019-03-21T04:13:57.188Z,77.90
2019-03-21T04:16:27.054Z,77.30
2019-03-21T04:18:58.079Z,76.70
2019-03-21T04:21:28.002Z,77.20
2019-03-21T04:23:59.710Z,77.70
2019-03-21T04:26:35.383Z,78.20
2019-03-21T04:29:05.336Z,78.60
2019-03-21T04:31:35.241Z,79.00
2019-03-21T04:34:10.189Z,79.50
2019-03-21T04:36:40.099Z,79.50
2019-03-21T04:39:10.608Z,79.70
2019-03-21T04:41:42.929Z,79.90
2019-03-21T04:44:12.858Z,79.50
2019-03-21T04:46:42.801Z,79.40
2019-03-21T04:49:12.739Z,79.30
2019-03-21T04:51:42.741Z,80.10
2019-03-21T04:54:12.638Z,79.70
2019-03-21T04:56:42.603Z,79.60
2019-03-21T04:59:12.495Z,79.60
2019-03-21T05:01:42.426Z,79.70
2019-03-21T05:04:12.325Z,79.70
2019-03-21T05:06:42.836Z,79.50
2019-03-21T05:09:14.830Z,79.50
2019-03-21T05:11:45.785Z,79.20
2019-03-21T05:14:15.767Z,79.60
2019-03-21T05:16:45.624Z,79.40
2019-03-21T05:19:15.493Z,78.90
2019-03-21T05:21:45.571Z,78.50
2019-03-21T05:24:15.427Z,78.20
2019-03-21T05:26:45.289Z,80.00
2019-03-21T05:29:15.172Z,78.60
2019-03-21T05:31:46.172Z,78.10
2019-03-21T05:34:16.111Z,78.90
2019-03-21T05:36:46.044Z,78.00
2019-03-21T05:39:15.901Z,78.00
2019-03-21T05:41:45.841Z,77.70
2019-03-21T05:44:18.756Z,77.10
2019-03-21T05:46:48.676Z,76.90
2019-03-21T05:49:18.687Z,77.10
2019-03-21T05:51:48.589Z,76.50
2019-03-21T05:54:18.499Z,75.40
2019-03-21T05:56:48.385Z,74.30
2019-03-21T05:59:18.425Z,73.10
2019-03-21T06:01:48.387Z,72.60
2019-03-21T06:04:19.367Z,70.60
2019-03-21T06:06:57.844Z,67.30
2019-03-21T06:09:28.870Z,62.80
2019-03-21T06:12:01.406Z,60.30
2019-03-21T06:14:34.384Z,59.70
2019-03-21T06:17:04.329Z,58.50
2019-03-21T06:19:51.786Z,57.20
2019-03-21T06:22:42.696Z,54.50
2019-03-21T06:25:15.991Z,55.00
2019-03-21T06:27:47.067Z,55.30
2019-03-21T06:30:16.987Z,53.90
2019-03-21T06:32:46.895Z,52.40
2019-03-21T06:35:20.755Z,51.60
2019-03-21T06:37:50.705Z,49.80
2019-03-21T06:40:20.704Z,47.80
2019-03-21T06:42:50.667Z,47.40
2019-03-21T06:45:20.518Z,46.40
2019-03-21T06:47:52.974Z,47.20
2019-03-21T06:50:22.019Z,47.70
2019-03-21T06:52:51.878Z,48.00
2019-03-21T06:55:21.803Z,47.70
2019-03-21T06:58:00.528Z,46.80
2019-03-21T07:00:31.533Z,46.30
2019-03-21T07:03:01.451Z,46.60
2019-03-21T07:05:31.302Z,46.10
2019-03-21T07:08:01.153Z,47.20
2019-03-21T07:10:31.047Z,48.50
2019-03-21T07:13:00.957Z,48.40
2019-03-21T07:15:30.816Z,48.90
2019-03-21T07:18:00.674Z,49.80
2019-03-21T07:20:30.666Z,50.70
2019-03-21T07:23:00.532Z,50.90
2019-03-21T07:25:30.562Z,51.50
2019-03-21T07:28:00.629Z,51.90
2019-03-21T07:30:30.474Z,51.40
2019-03-21T07:33:00.416Z,50.90
2019-03-21T07:35:30.368Z,52.10
2019-03-21T07:38:00.387Z,51.70
2019-03-21T07:40:30.327Z,51.50
2019-03-21T07:43:00.244Z,51.70
2019-03-21T07:45:30.109Z,51.70
2019-03-21T07:48:00.038Z,52.30
2019-03-21T07:50:29.963Z,52.10
2019-03-21T07:53:01.825Z,51.70
2019-03-21T07:55:31.839Z,51.60
2019-03-21T07:58:01.718Z,50.10
2019-03-21T08:00:31.586Z,49.60
2019-03-21T08:03:01.461Z,49.30
2019-03-21T08:05:39.759Z,48.30
2019-03-21T08:08:02.884Z,47.20
2019-03-21T08:10:32.726Z,47.50
2019-03-21T08:13:02.679Z,46.70
2019-03-21T08:15:32.605Z,46.90
2019-03-21T08:18:02.537Z,45.30
2019-03-21T08:20:32.383Z,44.90
2019-03-21T08:23:02.244Z,44.50
2019-03-21T08:25:32.111Z,43.60
2019-03-21T08:28:02.049Z,42.40
2019-03-21T08:30:33.793Z,42.50
2019-03-21T08:33:03.993Z,42.30
2019-03-21T08:35:34.001Z,41.00
2019-03-21T08:38:03.848Z,39.90
2019-03-21T08:40:33.783Z,38.10
2019-03-21T08:43:03.700Z,37.90
2019-03-21T08:45:33.559Z,36.30
2019-03-21T08:48:03.427Z,36.70
2019-03-21T08:50:33.342Z,38.50
2019-03-21T08:53:03.261Z,37.30
2019-03-21T08:55:33.176Z,36.10
2019-03-21T08:58:03.102Z,33.00
2019-03-21T09:00:34.386Z,32.20
2019-03-21T09:03:04.785Z,32.80
2019-03-21T09:05:34.724Z,31.90
2019-03-21T09:08:04.778Z,29.30
2019-03-21T09:10:34.708Z,26.40
2019-03-21T09:13:04.568Z,27.00
2019-03-21T09:15:34.506Z,24.80
2019-03-21T09:18:04.423Z,24.20
2019-03-21T09:20:34.364Z,23.60
2019-03-21T09:23:05.386Z,23.10
2019-03-21T09:25:35.332Z,22.20
2019-03-21T09:28:05.260Z,21.90
2019-03-21T09:30:35.256Z,22.70
2019-03-21T09:33:05.255Z,24.60
2019-03-21T09:35:35.202Z,22.80
2019-03-21T09:38:05.146Z,21.70
2019-03-21T09:40:35.072Z,20.30
2019-03-21T09:43:04.992Z,19.10
2019-03-21T09:45:34.935Z,17.80
2019-03-21T09:48:04.934Z,18.80
2019-03-21T09:50:34.864Z,18.20
2019-03-21T09:53:04.775Z,18.90
2019-03-21T09:55:34.879Z,17.90
2019-03-21T09:58:04.797Z,18.80
2019-03-21T10:00:36.274Z,18.70
2019-03-21T10:03:06.655Z,20.40
2019-03-21T10:05:36.515Z,22.10
2019-03-21T10:08:06.605Z,22.20
2019-03-21T10:10:36.571Z,22.70
2019-03-21T10:13:06.670Z,23.10
2019-03-21T10:15:36.624Z,22.70
2019-03-21T10:18:07.620Z,21.00
2019-03-21T10:20:37.569Z,21.70
2019-03-21T10:23:07.511Z,20.50
2019-03-21T10:25:37.426Z,19.40
2019-03-21T10:28:07.444Z,18.50
2019-03-21T10:30:39.879Z,18.60
2019-03-21T10:33:13.831Z,19.40
2019-03-21T10:35:43.863Z,18.00
2019-03-21T10:38:13.794Z,19.20
2019-03-21T10:40:43.877Z,19.30
2019-03-21T10:43:13.797Z,18.00
2019-03-21T10:45:44.732Z,17.50
2019-03-21T10:48:14.618Z,17.50
2019-03-21T10:50:44.506Z,16.70
2019-03-21T10:53:14.367Z,17.80
2019-03-21T10:55:44.305Z,18.30
2019-03-21T10:58:14.232Z,16.20
2019-03-21T11:00:44.107Z,17.50
2019-03-21T11:03:14.032Z,16.50
2019-03-21T11:05:43.885Z,14.80
2019-03-21T11:08:13.756Z,15.10
2019-03-21T11:10:43.638Z,15.30
2019-03-21T11:13:13.556Z,16.00
2019-03-21T11:15:43.502Z,18.50
2019-03-21T11:18:13.426Z,16.80
2019-03-21T11:20:43.373Z,16.00
2019-03-21T11:23:13.364Z,17.10
2019-03-21T11:25:43.307Z,16.90
2019-03-21T11:28:13.228Z,16.10
2019-03-21T11:30:43.933Z,15.90
2019-03-21T11:33:13.781Z,15.80
2019-03-21T11:35:43.735Z,15.60
2019-03-21T11:38:13.587Z,17.50
2019-03-21T11:40:43.463Z,18.40
2019-03-21T11:43:13.380Z,17.50
2019-03-21T11:45:43.405Z,16.40
2019-03-21T11:48:14.421Z,17.00
2019-03-21T11:50:44.372Z,16.60
2019-03-21T11:53:14.274Z,15.40
2019-03-21T11:55:44.205Z,14.80
2019-03-21T11:58:14.115Z,16.00
2019-03-21T12:00:45.302Z,16.30
2019-03-21T12:03:15.335Z,16.80
2019-03-21T12:05:45.268Z,15.40
2019-03-21T12:08:15.187Z,14.20
2019-03-21T12:10:45.115Z,14.40
2019-03-21T12:13:16.091Z,14.70
2019-03-21T12:15:46.060Z,16.90
2019-03-21T12:18:16.065Z,17.00
2019-03-21T12:20:46.008Z,15.50
2019-03-21T12:23:15.855Z,15.00
2019-03-21T12:25:45.704Z,16.10
2019-03-21T12:28:15.573Z,16.40
2019-03-21T12:30:45.536Z,16.10
2019-03-21T12:33:15.446Z,15.90
2019-03-21T12:35:45.304Z,16.60
2019-03-21T12:38:15.161Z,15.90
2019-03-21T12:40:45.096Z,15.70
2019-03-21T12:43:15.379Z,16.00
2019-03-21T12:45:45.247Z,15.90
2019-03-21T12:48:15.166Z,15.00
2019-03-21T12:50:45.020Z,14.60
2019-03-21T12:53:14.930Z,16.00
2019-03-21T12:55:44.805Z,16.80
2019-03-21T12:58:14.652Z,16.10
2019-03-21T13:00:45.531Z,15.80
2019-03-21T13:03:15.443Z,16.10
2019-03-21T13:05:45.450Z,15.60
2019-03-21T13:08:15.378Z,16.10
2019-03-21T13:10:45.258Z,16.00
2019-03-21T13:13:15.185Z,16.10
2019-03-21T13:15:45.209Z,16.20
2019-03-21T13:18:15.123Z,15.60
2019-03-21T13:20:45.019Z,16.30
2019-03-21T13:23:14.951Z,16.70
2019-03-21T13:25:44.847Z,16.80
2019-03-21T13:28:14.766Z,18.70
2019-03-21T13:30:44.624Z,19.90
2019-03-21T13:33:14.500Z,20.30
2019-03-21T13:35:44.416Z,21.70
2019-03-21T13:38:14.295Z,22.20
2019-03-21T13:40:44.211Z,22.80
2019-03-21T13:43:14.151Z,23.40
2019-03-21T13:45:44.143Z,24.40
2019-03-21T13:48:14.042Z,24.60
2019-03-21T13:50:43.964Z,24.50
2019-03-21T13:53:18.652Z,24.60
2019-03-21T13:55:45.450Z,24.50
2019-03-21T13:58:15.411Z,24.70
2019-03-21T14:00:45.318Z,25.20
2019-03-21T14:03:24.610Z,24.70
2019-03-21T14:05:46.801Z,24.50
2019-03-21T14:08:16.686Z,24.50
2019-03-21T14:10:46.623Z,24.80
2019-03-21T14:13:16.611Z,24.50
2019-03-21T14:15:46.552Z,24.70
2019-03-21T14:18:16.492Z,25.20
2019-03-21T14:20:46.429Z,25.20
2019-03-21T14:23:17.518Z,24.90
2019-03-21T14:25:47.860Z,23.50
2019-03-21T14:28:17.780Z,23.90
2019-03-21T14:30:47.727Z,24.40
2019-03-21T14:33:17.689Z,24.60
2019-03-21T14:35:47.640Z,24.70
2019-03-21T14:38:25.899Z,25.00
2019-03-21T14:40:49.119Z,23.50
2019-03-21T14:43:19.040Z,23.70
2019-03-21T14:45:48.930Z,23.50
2019-03-21T14:48:18.781Z,23.30
2019-03-21T14:50:48.704Z,22.90
2019-03-21T14:53:28.454Z,23.10
2019-03-21T14:55:50.394Z,23.10
2019-03-21T14:58:20.337Z,23.10
2019-03-21T15:00:50.228Z,22.70
2019-03-21T15:03:20.178Z,23.30
2019-03-21T15:05:50.090Z,23.50
2019-03-21T15:08:19.948Z,23.50
2019-03-21T15:10:49.816Z,23.70
2019-03-21T15:13:19.714Z,24.10
2019-03-21T15:15:49.631Z,24.50
2019-03-21T15:18:20.607Z,24.80
2019-03-21T15:20:50.481Z,24.90
2019-03-21T15:23:20.414Z,24.70
2019-03-21T15:25:50.483Z,24.80
2019-03-21T15:28:21.566Z,25.20
2019-03-21T15:30:51.511Z,25.60
2019-03-21T15:33:21.439Z,25.80
2019-03-21T15:35:51.379Z,25.80
2019-03-21T15:38:21.289Z,25.80
2019-03-21T15:40:51.212Z,26.10
2019-03-21T15:43:21.067Z,26.10
2019-03-21T15:45:50.910Z,26.20
2019-03-21T15:48:21.158Z,26.60
2019-03-21T15:50:59.582Z,26.60
2019-03-21T15:53:22.838Z,26.70
2019-03-21T15:55:52.692Z,26.90
2019-03-21T15:58:22.556Z,27.20
2019-03-21T16:00:52.417Z,27.40
2019-03-21T16:03:22.264Z,27.40
2019-03-21T16:05:52.201Z,27.70
2019-03-21T16:08:22.067Z,27.70
2019-03-21T16:10:51.996Z,27.80
2019-03-21T16:13:21.858Z,27.90
2019-03-21T16:15:51.743Z,28.10
2019-03-21T16:18:21.661Z,28.10
2019-03-21T16:20:51.584Z,28.50
2019-03-21T16:23:21.448Z,28.70
2019-03-21T16:25:51.398Z,29.00
2019-03-21T16:28:21.313Z,28.90
2019-03-21T16:30:51.264Z,28.90
2019-03-21T16:33:21.187Z,29.00
2019-03-21T16:35:51.175Z,29.10
2019-03-21T16:38:21.069Z,29.30
2019-03-21T16:40:50.927Z,29.40
2019-03-21T16:43:20.869Z,29.50
2019-03-21T16:45:50.805Z,29.40
2019-03-21T16:48:20.719Z,29.70
2019-03-21T16:50:50.658Z,29.60
2019-03-21T16:53:20.628Z,29.70
2019-03-21T16:55:50.487Z,30.00
2019-03-21T16:58:20.357Z,30.20
2019-03-21T17:00:50.191Z,30.20
2019-03-21T17:03:20.045Z,30.70
2019-03-21T17:05:49.889Z,30.70
2019-03-21T17:08:19.836Z,30.50
2019-03-21T17:10:49.782Z,30.60
2019-03-21T17:13:19.882Z,30.90
2019-03-21T17:15:49.820Z,30.90
2019-03-21T17:18:19.680Z,31.20
2019-03-21T17:20:49.560Z,31.60
2019-03-21T17:23:19.562Z,31.70
2019-03-21T17:25:49.490Z,31.80
2019-03-21T17:28:19.333Z,31.50
2019-03-21T17:30:49.211Z,31.70
2019-03-21T17:33:19.260Z,32.10
2019-03-21T17:35:52.659Z,32.00
2019-03-21T17:38:22.592Z,31.80
2019-03-21T17:40:52.528Z,32.20
2019-03-21T17:43:22.448Z,32.30
2019-03-21T17:45:52.322Z,32.60
2019-03-21T17:48:22.252Z,32.60
2019-03-21T17:50:52.184Z,32.80
2019-03-21T17:53:22.139Z,33.70
2019-03-21T17:55:52.075Z,33.10
2019-03-21T17:58:22.009Z,33.40
2019-03-21T18:00:51.933Z,33.60
2019-03-21T18:03:22.002Z,33.80
2019-03-21T18:05:51.945Z,34.20
2019-03-21T18:08:21.841Z,34.60
2019-03-21T18:10:51.758Z,35.00
2019-03-21T18:13:21.607Z,34.90
2019-03-21T18:15:52.935Z,35.40
2019-03-21T18:18:26.378Z,34.90
2019-03-21T18:20:59.239Z,34.90
2019-03-21T18:23:30.420Z,35.00
2019-03-21T18:26:00.363Z,34.90
2019-03-21T18:28:30.541Z,35.00
2019-03-21T18:31:00.737Z,35.10
2019-03-21T18:33:30.786Z,35.10
2019-03-21T18:36:00.881Z,35.30
2019-03-21T18:38:30.809Z,35.60
2019-03-21T18:41:00.751Z,35.80
2019-03-21T18:43:31.735Z,36.00
2019-03-21T18:46:01.685Z,36.40
2019-03-21T18:48:31.607Z,36.60
2019-03-21T18:51:01.556Z,36.50
2019-03-21T18:53:31.458Z,36.70
2019-03-21T18:56:02.373Z,37.10
2019-03-21T18:58:32.323Z,37.40
2019-03-21T19:01:02.211Z,37.50
2019-03-21T19:03:32.136Z,37.30
2019-03-21T19:06:02.006Z,37.60
2019-03-21T19:08:31.899Z,37.80
2019-03-21T19:11:01.792Z,38.00
2019-03-21T19:13:31.754Z,38.30
2019-03-21T19:16:01.721Z,38.60
2019-03-21T19:18:31.638Z,38.90
2019-03-21T19:21:01.520Z,38.90
2019-03-21T19:23:31.449Z,39.00
2019-03-21T19:26:01.368Z,39.10
2019-03-21T19:28:31.276Z,39.10
2019-03-21T19:31:01.314Z,39.60
2019-03-21T19:33:31.224Z,39.70
2019-03-21T19:36:01.174Z,39.80
2019-03-21T19:38:31.101Z,40.00
2019-03-21T19:41:00.986Z,40.10
2019-03-21T19:43:30.945Z,40.40
2019-03-21T19:46:00.889Z,41.00
2019-03-21T19:48:30.823Z,41.30
2019-03-21T19:51:01.763Z,41.60
2019-03-21T19:53:31.627Z,42.00
2019-03-21T19:56:08.415Z,42.30
2019-03-21T19:58:33.188Z,42.80
2019-03-21T20:01:03.059Z,43.30
2019-03-21T20:03:33.549Z,43.90
2019-03-21T20:06:04.470Z,44.20
2019-03-21T20:08:36.054Z,44.30
2019-03-21T20:11:07.317Z,44.70
2019-03-21T20:13:39.099Z,44.70
2019-03-21T20:16:09.285Z,45.00
2019-03-21T20:18:40.734Z,44.50
2019-03-21T20:21:12.066Z,44.50
2019-03-21T20:23:42.441Z,44.50
2019-03-21T20:26:14.200Z,44.90
2019-03-21T20:28:44.501Z,45.30
2019-03-21T20:31:15.850Z,45.40
2019-03-21T20:33:47.729Z,45.60
2019-03-21T20:36:18.920Z,45.90
2019-03-21T20:38:50.735Z,46.20
2019-03-21T20:41:22.041Z,46.40
2019-03-21T20:44:15.346Z,47.20
2019-03-21T20:46:46.838Z,47.00
2019-03-21T20:49:18.977Z,47.20
2019-03-21T20:51:49.566Z,47.50
2019-03-21T20:54:21.188Z,47.90
2019-03-21T20:56:52.555Z,48.00
2019-03-21T20:59:23.844Z,48.20
2019-03-21T21:02:02.774Z,48.60
2019-03-21T21:04:29.477Z,48.60
2019-03-21T21:07:00.391Z,48.90
2019-03-21T21:09:32.451Z,49.10
2019-03-21T21:12:03.485Z,49.00
2019-03-21T21:14:33.725Z,49.00
2019-03-21T21:17:04.995Z,49.60
2019-03-21T21:19:36.933Z,50.00
2019-03-21T21:22:08.656Z,50.60
2019-03-21T21:24:38.509Z,50.60
2019-03-21T21:27:09.865Z,50.60
2019-03-21T21:29:43.064Z,50.60
2019-03-21T21:32:13.145Z,50.80
2019-03-21T21:34:46.546Z,51.40
2019-03-21T21:37:17.436Z,51.50
2019-03-21T21:39:49.104Z,51.50
2019-03-21T21:42:21.025Z,51.60
2019-03-21T21:44:53.207Z,52.20
2019-03-21T21:47:24.245Z,52.60
2019-03-21T21:49:54.190Z,53.10
2019-03-21T21:52:24.110Z,53.00
2019-03-21T21:54:54.023Z,53.00
2019-03-21T21:57:24.000Z,53.20
2019-03-21T21:59:54.915Z,53.60
2019-03-21T22:02:24.839Z,53.80
2019-03-21T22:04:54.835Z,54.30
2019-03-21T22:07:24.731Z,54.60
2019-03-21T22:09:54.703Z,55.10
2019-03-21T22:12:24.641Z,55.00
2019-03-21T22:14:54.486Z,54.90
2019-03-21T22:17:24.361Z,55.00
2019-03-21T22:19:54.305Z,55.70
2019-03-21T22:22:24.268Z,55.70
2019-03-21T22:24:54.186Z,56.60
2019-03-21T22:27:24.039Z,56.90
2019-03-21T22:29:53.875Z,56.80
2019-03-21T22:32:23.744Z,56.50
2019-03-21T22:34:53.691Z,56.70
2019-03-21T22:37:23.650Z,56.90
2019-03-21T22:39:54.637Z,56.70
2019-03-21T22:42:24.575Z,57.40
2019-03-21T22:44:54.517Z,57.50
2019-03-21T22:47:24.382Z,58.30
2019-03-21T22:49:54.271Z,58.20
2019-03-21T22:52:24.274Z,58.20
2019-03-21T22:54:54.210Z,58.80
2019-03-21T22:57:24.161Z,58.70
2019-03-21T22:59:54.089Z,58.60
2019-03-21T23:02:24.103Z,58.60
2019-03-21T23:04:54.023Z,59.10
2019-03-21T23:07:23.997Z,59.40
2019-03-21T23:09:53.952Z,59.70
2019-03-21T23:12:24.755Z,60.50
2019-03-21T23:14:54.628Z,59.70
2019-03-21T23:17:24.502Z,60.20
2019-03-21T23:19:54.430Z,59.90
2019-03-21T23:22:24.587Z,59.90
2019-03-21T23:24:54.540Z,60.30
2019-03-21T23:27:24.476Z,60.90
2019-03-21T23:29:54.346Z,61.60
2019-03-21T23:32:24.348Z,61.60
2019-03-21T23:34:54.206Z,61.70
2019-03-21T23:37:24.145Z,62.10
2019-03-21T23:39:53.998Z,61.70
2019-03-21T23:42:23.861Z,60.90
2019-03-21T23:44:53.859Z,60.60
2019-03-21T23:47:23.705Z,61.50
2019-03-21T23:49:53.927Z,60.50
2019-03-21T23:52:23.769Z,60.30
2019-03-21T23:54:53.641Z,60.00
2019-03-21T23:57:23.554Z,59.90
2019-03-21T23:59:53.404Z,59.90
